Time,TemperatureF,DewpointF,PressureIn,WindDirection,WindDirectionDegrees,WindSpeedMPH,WindSpeedGustMPH,Humidity,HourlyPrecipIn,Conditions,Clouds,dailyrainin,SoftwareType,DateUTC
2013-11-19 00:12:00,34.0,27.0,30.16,WNW,290,3.0,9.0,75,-99.99,,,-99.99,,2013-11-19 05:12:00,
2013-11-19 00:23:00,34.0,27.0,30.16,WNW,286,1.0,7.0,75,-99.99,,,-99.99,,2013-11-19 05:23:00,
2013-11-19 00:33:00,34.0,27.0,30.16,WNW,286,1.0,7.0,75,-99.99,,,-99.99,,2013-11-19 05:33:00,
2013-11-19 00:43:00,34.0,27.0,30.16,WNW,286,1.0,7.0,75,-99.99,,,-99.99,,2013-11-19 05:43:00,
2013-11-19 00:53:00,34.0,27.0,30.16,WNW,286,1.0,7.0,75,-99.99,,,-99.99,,2013-11-19 05:53:00,
2013-11-19 08:52:00,32.0,27.0,30.32,West,265,1.0,4.0,80,-99.99,,,-99.99,,2013-11-19 13:52:00,
2013-11-19 09:11:00,32.0,27.0,30.32,West,265,0.0,2.0,80,-99.99,,,-99.99,,2013-11-19 14:11:00,
2013-11-19 09:22:00,33.0,27.0,30.32,West,266,0.0,4.0,79,-99.99,,,-99.99,,2013-11-19 14:22:00,
2013-11-19 09:42:00,33.0,27.0,30.33,North,5,1.0,9.0,77,-99.99,,,-99.99,,2013-11-19 14:42:00,
2013-11-19 09:52:00,35.0,27.0,30.33,NNE,30,4.0,7.0,71,-99.99,,,-99.99,,2013-11-19 14:52:00,
2013-11-19 10:11:00,35.0,26.0,30.33,NE,40,4.0,11.0,68,-99.99,,,-99.99,,2013-11-19 15:11:00,
2013-11-19 10:22:00,36.0,26.0,30.34,NE,54,8.0,11.0,67,-99.99,,,-99.99,,2013-11-19 15:22:00,
2013-11-19 10:43:00,36.0,25.0,30.34,North,5,3.0,13.0,65,-99.99,,,-99.99,,2013-11-19 15:43:00,
2013-11-19 10:54:00,36.0,25.0,30.34,NNW,328,1.0,6.0,65,-99.99,,,-99.99,,2013-11-19 15:54:00,
2013-11-19 11:13:00,37.0,26.0,30.34,East,89,8.0,13.0,64,-99.99,,,-99.99,,2013-11-19 16:13:00,
2013-11-19 11:23:00,38.0,25.0,30.34,NE,53,5.0,9.0,60,-99.99,,,-99.99,,2013-11-19 16:23:00,
2013-11-19 11:43:00,38.0,25.0,30.33,North,5,3.0,7.0,60,-99.99,,,-99.99,,2013-11-19 16:43:00,
2013-11-19 11:53:00,39.0,25.0,30.33,NE,34,4.0,9.0,58,-99.99,,,-99.99,,2013-11-19 16:53:00,
2013-11-19 12:12:00,40.0,26.0,30.33,East,80,1.0,9.0,58,-99.99,,,-99.99,,2013-11-19 17:12:00,
2013-11-19 12:22:00,40.0,26.0,30.32,SSE,151,4.0,11.0,58,-99.99,,,-99.99,,2013-11-19 17:22:00,
2013-11-19 12:43:00,40.0,26.0,30.32,NE,34,4.0,6.0,56,-99.99,,,-99.99,,2013-11-19 17:43:00,
2013-11-19 12:52:00,41.0,26.0,30.32,NE,49,2.0,5.0,55,-99.99,,,-99.99,,2013-11-19 17:52:00,
2013-11-19 13:12:00,42.0,26.0,30.32,East,88,1.0,7.0,53,-99.99,,,-99.99,,2013-11-19 18:12:00,
2013-11-19 13:23:00,42.0,27.0,30.31,SE,130,4.0,12.0,54,-99.99,,,-99.99,,2013-11-19 18:23:00,
2013-11-19 13:42:00,42.0,26.0,30.31,East,92,1.0,6.0,52,-99.99,,,-99.99,,2013-11-19 18:42:00,
2013-11-19 13:52:00,42.0,26.0,30.31,ESE,110,5.0,11.0,52,-99.99,,,-99.99,,2013-11-19 18:52:00,
2013-11-19 14:11:00,43.0,26.0,30.30,ESE,120,4.0,8.0,51,-99.99,,,-99.99,,2013-11-19 19:11:00,
2013-11-19 14:21:00,43.0,26.0,30.29,SE,124,4.0,11.0,51,-99.99,,,-99.99,,2013-11-19 19:21:00,
2013-11-19 14:42:00,43.0,26.0,30.30,ESE,106,5.0,10.0,51,-99.99,,,-99.99,,2013-11-19 19:42:00,
2013-11-19 14:52:00,43.0,27.0,30.29,SE,134,2.0,11.0,52,-99.99,,,-99.99,,2013-11-19 19:52:00,
2013-11-19 15:12:00,43.0,26.0,30.29,ESE,103,3.0,11.0,51,-99.99,,,-99.99,,2013-11-19 20:12:00,
2013-11-19 15:22:00,43.0,26.0,30.29,ESE,106,2.0,6.0,51,-99.99,,,-99.99,,2013-11-19 20:22:00,
2013-11-19 15:42:00,43.0,26.0,30.29,ESE,121,4.0,11.0,51,-99.99,,,-99.99,,2013-11-19 20:42:00,
2013-11-19 15:52:00,43.0,27.0,30.29,ENE,72,4.0,9.0,52,-99.99,,,-99.99,,2013-11-19 20:52:00,
2013-11-19 16:11:00,43.0,27.0,30.29,ESE,104,4.0,8.0,52,-99.99,,,-99.99,,2013-11-19 21:11:00,
2013-11-19 16:22:00,43.0,26.0,30.29,SE,128,4.0,6.0,51,-99.99,,,-99.99,,2013-11-19 21:22:00,
2013-11-19 16:43:00,42.0,26.0,30.30,SE,129,5.0,13.0,52,-99.99,,,-99.99,,2013-11-19 21:43:00,
2013-11-19 16:54:00,42.0,27.0,30.30,ESE,122,1.0,9.0,54,-99.99,,,-99.99,,2013-11-19 21:54:00,
2013-11-19 17:13:00,41.0,26.0,30.31,ESE,123,3.0,5.0,54,-99.99,,,-99.99,,2013-11-19 22:13:00,
2013-11-19 17:23:00,41.0,26.0,30.31,ESE,123,3.0,7.0,55,-99.99,,,-99.99,,2013-11-19 22:23:00,
2013-11-19 17:33:00,41.0,26.0,30.31,ESE,123,3.0,7.0,55,-99.99,,,-99.99,,2013-11-19 22:33:00,
2013-11-19 17:43:00,41.0,26.0,30.31,ESE,123,3.0,7.0,55,-99.99,,,-99.99,,2013-11-19 22:43:00,
2013-11-19 17:53:00,41.0,26.0,30.31,ESE,123,3.0,7.0,55,-99.99,,,-99.99,,2013-11-19 22:53:00,